Time;durP1;ratioP1;P1;durP2;ratioP2;P2;SDS_P1;SDS_P2;PMS_P1;PMS_P2;Temp;Humidity;BMP_temperature;BMP_pressure;BME280_temperature;BME280_humidity;BME280_pressure;Samples;Min_cycle;Max_cycle;Signal;HPM_P1;HPM_P2
2022/02/18 00:02:11;;;;;;;3.55;2.50;;;;;;;3.84;86.01;98422.09;1751064;81;25616;-74
2022/02/18 00:04:38;;;;;;;12.53;5.83;;;;;;;3.83;86.15;98425.06;1751127;81;25602;-73
2022/02/18 00:07:05;;;;;;;8.13;4.67;;;;;;;3.85;86.54;98435.71;1721992;81;25618;-72
2022/02/18 00:09:31;;;;;;;11.10;5.42;;;;;;;3.85;86.83;98434.38;1751174;81;25685;-75
2022/02/18 00:11:58;;;;;;;14.70;6.58;;;;;;;3.84;87.09;98455.52;1751233;81;27482;-74
2022/02/18 00:14:24;;;;;;;15.83;6.80;;;;;;;3.84;86.44;98454.73;1751002;81;25444;-74
2022/02/18 00:16:51;;;;;;;9.65;4.72;;;;;;;3.84;86.82;98456.08;1753480;81;26312;-74
2022/02/18 00:19:19;;;;;;;16.00;5.30;;;;;;;3.82;86.47;98461.73;1756773;81;25959;-76
2022/02/18 00:21:46;;;;;;;11.12;4.37;;;;;;;3.81;86.38;98466.05;1756861;81;25588;-76
2022/02/18 00:24:13;;;;;;;22.02;9.55;;;;;;;3.83;86.36;98466.52;1756754;81;27338;-76
2022/02/18 00:26:40;;;;;;;16.00;5.50;;;;;;;3.82;86.25;98484.47;1756713;81;25722;-76
2022/02/18 00:29:06;;;;;;;17.70;6.53;;;;;;;3.82;86.18;98479.12;1729057;81;25639;-76
2022/02/18 00:31:32;;;;;;;9.85;4.05;;;;;;;3.83;85.80;98481.23;1756818;81;26066;-76
2022/02/18 00:33:59;;;;;;;6.35;3.25;;;;;;;3.85;85.78;98493.77;1756904;81;25652;-75
2022/02/18 00:36:25;;;;;;;5.83;3.45;;;;;;;3.84;85.82;98490.84;1756848;81;27351;-76
2022/02/18 00:38:51;;;;;;;3.95;2.42;;;;;;;3.84;85.35;98496.98;1729153;81;25626;-76
2022/02/18 00:41:18;;;;;;;6.80;2.67;;;;;;;3.86;85.13;98504.14;1756917;81;25641;-74
2022/02/18 00:43:44;;;;;;;3.60;1.72;;;;;;;3.87;84.99;98502.27;1756920;81;25971;-75
2022/02/18 00:46:11;;;;;;;3.75;1.87;;;;;;;3.87;84.86;98502.27;1757009;81;25588;-78
2022/02/18 00:48:37;;;;;;;5.10;1.72;;;;;;;3.88;84.51;98510.52;1757000;81;27309;-77
2022/02/18 00:51:06;;;;;;;3.62;1.70;;;;;;;3.89;84.44;98513.45;1756764;81;25567;-76
2022/02/18 00:53:33;;;;;;;4.35;1.85;;;;;;;3.88;84.40;98506.51;1756902;81;25733;-76
2022/02/18 00:56:00;;;;;;;4.33;1.32;;;;;;;3.89;84.00;98523.59;1756910;81;25924;-76
2022/02/18 00:58:30;;;;;;;2.83;1.80;;;;;;;3.91;83.92;98523.28;1756939;81;25603;-76
2022/02/18 01:00:56;;;;;;;;;;;;;;;3.90;83.73;98534.55;1759920;81;27333;-76
2022/02/18 01:03:22;;;;;;;3.17;1.35;;;;;;;3.92;83.47;98535.02;1757015;81;25777;-77
2022/02/18 01:05:49;;;;;;;3.98;1.35;;;;;;;3.95;83.37;98523.45;1757276;81;25443;-75
2022/02/18 01:08:17;;;;;;;2.62;1.50;;;;;;;3.96;83.21;98534.41;1757052;81;26009;-75
2022/02/18 01:10:44;;;;;;;4.62;1.72;;;;;;;3.96;83.09;98537.09;1757167;81;25792;-75
2022/02/18 01:13:12;;;;;;;3.92;1.60;;;;;;;3.98;83.05;98538.90;1757060;81;27376;-75
2022/02/18 01:15:39;;;;;;;5.75;1.52;;;;;;;3.98;83.05;98546.92;1757746;81;25711;-75
2022/02/18 01:18:06;;;;;;;3.30;1.67;;;;;;;3.99;83.26;98555.20;1753297;81;25705;-76
2022/02/18 01:20:32;;;;;;;3.67;2.47;;;;;;;4.00;83.34;98558.10;1751254;81;25911;-75
2022/02/18 01:22:59;;;;;;;4.78;1.92;;;;;;;3.98;83.55;98564.31;1751295;81;25608;-76
2022/02/18 01:25:25;;;;;;;3.83;1.72;;;;;;;3.95;83.81;98559.05;1721896;81;27385;-75
2022/02/18 01:27:58;;;;;;;3.67;1.87;;;;;;;3.91;83.55;98561.52;1751310;81;25608;-77
2022/02/18 01:30:27;;;;;;;5.15;1.92;;;;;;;3.90;83.99;98551.93;1751202;81;25678;-76
2022/02/18 01:32:54;;;;;;;2.00;1.50;;;;;;;3.88;83.56;98550.12;1751324;81;34789;-75
2022/02/18 01:35:21;;;;;;;6.37;2.92;;;;;;;3.85;83.65;98557.41;1751180;81;26227;-76
2022/02/18 01:37:51;;;;;;;6.33;1.90;;;;;;;3.84;83.63;98562.51;1751299;81;28040;-75
2022/02/18 01:40:17;;;;;;;;;;;;;;;3.84;84.24;98557.72;1753920;81;25702;-76
2022/02/18 01:42:45;;;;;;;5.58;2.17;;;;;;;3.81;84.13;98565.78;1751911;81;25597;-74
2022/02/18 01:45:12;;;;;;;5.08;2.30;;;;;;;3.77;84.25;98560.05;1751821;81;26087;-76
2022/02/18 01:47:38;;;;;;;6.58;2.00;;;;;;;3.75;84.39;98579.06;1751533;81;25605;-77
2022/02/18 01:50:07;;;;;;;8.78;1.82;;;;;;;3.73;84.54;98564.66;1751332;81;27969;-76
2022/02/18 01:52:40;;;;;;;6.50;2.20;;;;;;;3.71;84.59;98569.53;1751007;81;25658;-74
2022/02/18 01:55:12;;;;;;;8.43;2.45;;;;;;;3.70;85.26;98563.14;1723039;81;25477;-74
2022/02/18 01:57:48;;;;;;;5.85;2.10;;;;;;;3.68;84.97;98565.34;1751369;81;26032;-75
2022/02/18 02:00:21;;;;;;;6.72;1.82;;;;;;;3.66;84.84;98573.66;1750858;81;25649;-74
2022/02/18 02:02:48;;;;;;;6.75;2.45;;;;;;;3.65;84.85;98582.77;1751436;81;27470;-75
2022/02/18 02:05:16;;;;;;;9.03;2.42;;;;;;;3.66;84.89;98576.86;1751342;81;25622;-75
2022/02/18 02:07:45;;;;;;;8.13;2.98;;;;;;;3.65;84.89;98590.01;1751484;81;25608;-74
2022/02/18 02:10:14;;;;;;;7.00;2.27;;;;;;;3.66;84.78;98587.03;1751553;81;25924;-74
2022/02/18 02:12:50;;;;;;;8.83;2.33;;;;;;;3.67;84.49;98577.12;1751687;81;25765;-75
2022/02/18 02:15:23;;;;;;;6.85;2.35;;;;;;;3.67;84.60;98573.11;1751529;81;26166;-75
2022/02/18 02:17:50;;;;;;;5.95;2.33;;;;;;;3.67;84.49;98583.25;1754581;81;25557;-75
2022/02/18 02:20:17;;;;;;;7.55;1.82;;;;;;;3.69;84.22;98586.95;1732506;81;25404;-75
2022/02/18 02:22:47;;;;;;;9.30;2.67;;;;;;;3.68;84.04;98579.48;1749501;81;25888;-74
2022/02/18 02:25:16;;;;;;;5.50;1.77;;;;;;;3.71;83.64;98588.77;1758263;81;25618;-75
2022/02/18 02:27:43;;;;;;;6.65;2.10;;;;;;;3.72;83.57;98603.73;1758117;81;27332;-75
2022/02/18 02:30:13;;;;;;;6.50;1.90;;;;;;;3.73;83.68;98589.28;1758052;81;25612;-76
2022/02/18 02:32:40;;;;;;;5.08;1.70;;;;;;;3.71;83.77;98600.28;1758185;81;25392;-75
2022/02/18 02:35:08;;;;;;;7.25;1.82;;;;;;;3.70;83.91;98597.35;1758176;81;25966;-75
2022/02/18 02:37:37;;;;;;;8.08;2.42;;;;;;;3.70;84.02;98605.38;1758196;81;25617;-75
2022/02/18 02:40:05;;;;;;;8.50;2.52;;;;;;;3.67;84.18;98593.94;1732575;81;27894;-74
2022/02/18 02:42:33;;;;;;;8.78;2.10;;;;;;;3.64;84.25;98603.12;1797486;79;25566;-75
2022/02/18 02:45:00;;;;;;;9.45;2.00;;;;;;;3.63;84.35;98618.94;1797450;79;25464;-75
2022/02/18 02:47:26;;;;;;;11.22;2.27;;;;;;;3.62;84.41;98612.00;1797454;79;25912;-75
2022/02/18 02:49:56;;;;;;;11.90;2.02;;;;;;;3.61;84.14;98609.88;1797410;79;25484;-75
2022/02/18 02:52:24;;;;;;;9.73;2.35;;;;;;;3.61;84.34;98610.41;1797597;79;27939;-74
2022/02/18 02:54:51;;;;;;;11.30;1.82;;;;;;;3.62;84.53;98621.36;1797479;79;25472;-76
2022/02/18 02:57:18;;;;;;;8.85;2.20;;;;;;;3.61;84.36;98627.27;1797573;79;25391;-75
2022/02/18 02:59:45;;;;;;;10.72;2.22;;;;;;;3.60;84.88;98636.37;1797480;79;25918;-75
2022/02/18 03:02:12;;;;;;;8.08;2.15;;;;;;;3.59;85.04;98634.77;1797573;79;25619;-74
2022/02/18 03:04:39;;;;;;;7.78;2.80;;;;;;;3.54;85.18;98639.72;1798209;79;28067;-74
2022/02/18 03:07:06;;;;;;;5.53;1.70;;;;;;;3.52;84.99;98645.10;1797881;79;25571;-75
2022/02/18 03:09:35;;;;;;;10.53;1.90;;;;;;;3.48;85.34;98646.26;1797522;79;25484;-75
2022/02/18 03:12:02;;;;;;;8.38;2.05;;;;;;;3.43;85.38;98646.92;1797473;79;26488;-76
2022/02/18 03:14:28;;;;;;;9.73;2.05;;;;;;;3.39;85.76;98656.62;1797504;79;25491;-74
2022/02/18 03:16:57;;;;;;;5.80;1.90;;;;;;;3.34;85.78;98656.20;1797236;79;27938;-75
2022/02/18 03:19:23;;;;;;;10.03;2.10;;;;;;;3.29;85.80;98657.09;1791602;79;25590;-75
2022/02/18 03:21:51;;;;;;;6.62;2.27;;;;;;;3.28;85.91;98661.41;1791707;80;25457;-75
2022/02/18 03:24:22;;;;;;;11.12;2.83;;;;;;;3.23;86.41;98663.63;1791619;80;26026;-75
2022/02/18 03:26:50;;;;;;;9.40;2.55;;;;;;;3.19;87.31;98664.00;1791796;80;25579;-74
2022/02/18 03:29:17;;;;;;;7.92;1.98;;;;;;;3.14;87.40;98660.88;1760921;80;28007;-75
2022/02/18 03:31:45;;;;;;;10.32;2.15;;;;;;;3.11;87.09;98671.38;1791382;80;25738;-74
2022/02/18 03:34:13;;;;;;;8.18;2.15;;;;;;;3.07;87.30;98666.39;1791613;80;25619;-75
2022/02/18 03:36:45;;;;;;;10.05;2.17;;;;;;;3.04;87.87;98669.11;1791545;80;25996;-76
2022/02/18 03:39:13;;;;;;;8.25;2.08;;;;;;;3.03;88.17;98672.07;1791822;80;25460;-75
2022/02/18 03:41:40;;;;;;;7.17;2.50;;;;;;;3.01;88.34;98675.59;1761594;80;27343;-76
2022/02/18 03:44:10;;;;;;;9.03;2.58;;;;;;;2.98;88.53;98672.44;1791566;80;25512;-75
2022/02/18 03:46:37;;;;;;;9.60;2.37;;;;;;;2.96;88.40;98668.46;1791820;80;25593;-75
2022/02/18 03:49:05;;;;;;;9.45;2.33;;;;;;;2.95;87.99;98681.03;1791748;80;25980;-75
2022/02/18 03:51:32;;;;;;;9.93;2.45;;;;;;;2.95;88.17;98679.70;1791608;80;25577;-74
2022/02/18 03:53:59;;;;;;;10.45;1.85;;;;;;;2.95;88.04;98684.26;1791507;80;27303;-74
2022/02/18 03:56:28;;;;;;;12.00;2.83;;;;;;;2.95;89.06;98687.72;1791438;80;25583;-75
2022/02/18 03:58:55;;;;;;;9.85;2.22;;;;;;;2.96;88.16;98693.84;1791848;80;25151;-75
2022/02/18 04:01:22;;;;;;;11.45;2.27;;;;;;;2.97;88.19;98695.43;1761042;80;25904;-75
2022/02/18 04:03:50;;;;;;;11.28;2.05;;;;;;;2.98;88.45;98702.37;1791654;80;25595;-75
2022/02/18 04:06:17;;;;;;;8.43;1.92;;;;;;;2.98;88.72;98718.39;1791612;80;27374;-75
2022/02/18 04:08:43;;;;;;;11.18;2.10;;;;;;;2.99;88.87;98718.07;1791443;80;25421;-75
2022/02/18 04:11:11;;;;;;;17.77;3.95;;;;;;;3.00;88.26;98724.23;1791700;80;25638;-75
2022/02/18 04:13:41;;;;;;;12.07;2.60;;;;;;;3.01;88.39;98729.02;1748942;82;25437;-77
2022/02/18 04:16:07;;;;;;;12.10;2.10;;;;;;;3.01;88.32;98727.68;1749032;82;25446;-75
2022/02/18 04:18:39;;;;;;;16.93;3.65;;;;;;;3.02;88.28;98730.61;1706003;83;27369;-75
2022/02/18 04:21:06;;;;;;;10.38;1.90;;;;;;;3.04;88.16;98735.89;1728847;83;25506;-74
2022/02/18 04:23:35;;;;;;;10.00;2.10;;;;;;;3.06;88.03;98746.28;1757415;81;25473;-75
2022/02/18 04:26:03;;;;;;;10.00;2.27;;;;;;;3.08;88.01;98748.92;1757675;81;25927;-75
2022/02/18 04:28:34;;;;;;;9.25;1.95;;;;;;;3.10;87.77;98752.60;1757622;81;25458;-74
2022/02/18 04:31:00;;;;;;;7.22;1.90;;;;;;;3.13;87.57;98756.84;1757466;81;27306;-74
2022/02/18 04:33:28;;;;;;;8.35;2.00;;;;;;;3.15;87.39;98757.84;1757205;81;25406;-75
2022/02/18 04:35:55;;;;;;;8.63;2.22;;;;;;;3.17;87.24;98767.72;1757452;81;25418;-75
2022/02/18 04:38:22;;;;;;;10.80;2.05;;;;;;;3.19;87.04;98777.56;1757357;81;25896;-77
2022/02/18 04:40:49;;;;;;;10.82;1.77;;;;;;;3.22;86.93;98786.33;1757385;81;25454;-75
2022/02/18 04:43:15;;;;;;;7.15;1.72;;;;;;;3.24;86.86;98792.71;1757275;81;27305;-75
2022/02/18 04:45:44;;;;;;;12.82;2.98;;;;;;;3.24;86.56;98788.15;1757295;81;25678;-75
2022/02/18 04:48:14;;;;;;;6.95;1.92;;;;;;;3.29;86.37;98801.97;1757417;81;25631;-76
2022/02/18 04:50:41;;;;;;;7.87;2.00;;;;;;;3.31;86.15;98801.12;1757607;81;25901;-75
2022/02/18 04:53:09;;;;;;;7.75;2.37;;;;;;;3.33;85.76;98810.41;1757435;81;25621;-76
2022/02/18 04:55:37;;;;;;;7.80;1.72;;;;;;;3.36;85.57;98821.06;1757411;81;27285;-75
2022/02/18 04:58:07;;;;;;;9.08;1.87;;;;;;;3.35;85.29;98805.58;1750764;81;25554;-74
2022/02/18 05:00:36;;;;;;;10.40;2.60;;;;;;;3.43;85.06;98821.45;1753269;81;25521;-75
2022/02/18 05:03:02;;;;;;;9.33;1.70;;;;;;;3.44;84.26;98824.39;1757359;81;26621;-75
2022/02/18 05:05:29;;;;;;;13.03;2.17;;;;;;;3.49;84.39;98820.80;1757442;81;25535;-75
2022/02/18 05:07:56;;;;;;;7.78;2.35;;;;;;;3.51;84.20;98836.80;1757370;81;27311;-75
2022/02/18 05:10:24;;;;;;;9.03;2.20;;;;;;;3.54;84.00;98847.44;1757307;81;25610;-73
2022/02/18 05:12:51;;;;;;;12.50;2.67;;;;;;;3.58;83.67;98843.09;1757320;81;25588;-75
2022/02/18 05:15:19;;;;;;;10.28;2.27;;;;;;;3.61;83.29;98857.22;1729759;81;26084;-75
2022/02/18 05:17:48;;;;;;;8.38;1.82;;;;;;;3.65;82.99;98864.09;1757074;81;25562;-75
2022/02/18 05:20:17;;;;;;;5.95;2.35;;;;;;;3.67;82.97;98868.04;1748797;82;27352;-74
2022/02/18 05:22:47;;;;;;;8.93;2.12;;;;;;;3.84;82.84;98887.50;1717434;83;25675;-74
2022/02/18 05:25:14;;;;;;;8.98;2.22;;;;;;;3.84;82.84;98887.50;1748704;82;25430;-74
2022/02/18 05:27:43;;;;;;;10.53;2.00;;;;;;;3.74;82.23;98885.03;1717268;83;25232;-75
2022/02/18 05:30:11;;;;;;;6.80;1.70;;;;;;;3.75;81.90;98879.94;1748713;82;25615;-75
2022/02/18 05:32:38;;;;;;;5.90;1.82;;;;;;;3.77;81.65;98887.11;1753952;81;27305;-75
2022/02/18 05:35:07;;;;;;;9.00;1.98;;;;;;;3.78;81.62;98878.53;1753890;81;25372;-74
2022/02/18 05:37:34;;;;;;;8.73;1.80;;;;;;;3.80;81.62;98891.06;1722149;83;25411;-74
2022/02/18 05:40:01;;;;;;;12.03;2.17;;;;;;;3.81;81.30;98897.45;1748676;82;25930;-75
2022/02/18 05:42:28;;;;;;;10.53;2.15;;;;;;;3.81;81.06;98901.46;1718058;83;25431;-74
2022/02/18 05:44:55;;;;;;;9.15;2.50;;;;;;;3.82;81.02;98909.75;1718156;82;27419;-74
2022/02/18 05:47:24;;;;;;;6.42;2.12;;;;;;;3.82;80.60;98901.72;1717366;83;25682;-75
2022/02/18 05:49:50;;;;;;;10.18;2.45;;;;;;;3.83;80.72;98911.87;1748802;82;25531;-74
2022/02/18 05:52:17;;;;;;;7.90;2.05;;;;;;;3.85;80.60;98916.40;1718696;83;26511;-74
2022/02/18 05:54:44;;;;;;;8.45;2.77;;;;;;;3.86;80.53;98921.98;1748673;82;25562;-75
2022/02/18 05:57:11;;;;;;;9.35;2.60;;;;;;;3.87;80.53;98921.69;1717345;83;27955;-74
2022/02/18 05:59:38;;;;;;;7.28;2.10;;;;;;;3.86;80.40;98932.13;1748662;82;25593;-75
2022/02/18 06:02:04;;;;;;;11.83;2.50;;;;;;;3.87;80.31;98940.41;1717401;83;25363;-75
2022/02/18 06:04:31;;;;;;;9.75;2.30;;;;;;;3.88;80.36;98938.52;1748651;82;25959;-75
2022/02/18 06:06:58;;;;;;;9.18;2.42;;;;;;;3.90;80.11;98953.75;1717537;83;25233;-76
2022/02/18 06:09:25;;;;;;;5.28;2.20;;;;;;;3.90;80.21;98955.88;1718313;82;28015;-75
2022/02/18 06:11:51;;;;;;;10.60;2.45;;;;;;;3.91;80.37;98947.30;1687509;83;25736;-75
2022/02/18 06:14:18;;;;;;;11.30;1.90;;;;;;;3.93;80.45;98967.84;1748611;82;25455;-75
2022/02/18 06:16:44;;;;;;;8.05;2.33;;;;;;;3.92;80.36;98956.36;1717203;83;25906;-75
2022/02/18 06:19:11;;;;;;;9.10;2.77;;;;;;;3.93;80.30;98958.48;1748466;81;25447;-75
2022/02/18 06:21:40;;;;;;;7.72;2.15;;;;;;;3.94;80.12;98965.43;1717067;83;27315;-74
2022/02/18 06:24:10;;;;;;;7.37;1.90;;;;;;;3.91;79.69;98963.34;1717455;82;25769;-74
2022/02/18 06:26:37;;;;;;;4.55;1.70;;;;;;;3.93;79.74;98967.32;1717128;83;25457;-74
2022/02/18 06:29:04;;;;;;;8.63;1.85;;;;;;;3.94;79.32;98980.14;1748442;82;25905;-74
2022/02/18 06:31:33;;;;;;;8.78;1.87;;;;;;;3.96;79.03;98981.19;1748537;82;25594;-75
2022/02/18 06:34:00;;;;;;;8.33;1.90;;;;;;;3.97;78.95;98989.45;1748607;82;27336;-74
2022/02/18 06:36:26;;;;;;;10.35;2.42;;;;;;;3.97;78.92;98986.77;1716998;83;25601;-74
2022/02/18 06:38:53;;;;;;;11.88;2.50;;;;;;;3.98;78.92;98984.36;1738730;82;25648;-74
2022/02/18 06:41:23;;;;;;;8.28;2.33;;;;;;;4.00;78.90;98995.55;1708625;82;25970;-75
2022/02/18 06:43:50;;;;;;;7.62;2.30;;;;;;;4.01;78.80;99001.16;1723217;82;25789;-74
2022/02/18 06:46:16;;;;;;;5.80;2.15;;;;;;;4.03;78.59;99005.11;1717894;82;27481;-75
2022/02/18 06:48:43;;;;;;;10.23;3.02;;;;;;;4.05;78.72;99012.84;1708635;83;25599;-75
2022/02/18 06:51:09;;;;;;;7.17;1.90;;;;;;;4.09;78.50;99015.19;1710568;83;25468;-75
2022/02/18 06:53:38;;;;;;;7.00;2.22;;;;;;;4.09;78.18;99015.98;1714750;82;25749;-74
2022/02/18 06:56:08;;;;;;;5.15;2.12;;;;;;;4.10;77.56;99029.62;1715447;82;25570;-75
2022/02/18 06:58:37;;;;;;;6.97;2.67;;;;;;;4.11;77.87;99021.82;1709343;83;27945;-75
2022/02/18 07:01:03;;;;;;;8.10;3.50;;;;;;;4.15;78.06;99021.23;1708799;83;26330;-75
2022/02/18 07:03:30;;;;;;;9.03;2.52;;;;;;;4.16;77.95;99025.50;1708628;83;25488;-75
2022/02/18 07:05:57;;;;;;;10.23;2.12;;;;;;;4.20;78.15;99037.19;1666914;83;26629;-76
2022/02/18 07:08:24;;;;;;;14.05;2.72;;;;;;;4.21;77.31;99030.77;1705652;83;25572;-74
2022/02/18 07:10:50;;;;;;;14.90;3.92;;;;;;;4.20;76.84;99033.96;1708709;82;27878;-74
2022/02/18 07:13:19;;;;;;;9.55;3.17;;;;;;;4.21;77.05;99047.61;1724910;82;25591;-74
2022/02/18 07:15:45;;;;;;;11.97;2.55;;;;;;;4.22;76.78;99036.34;1682823;83;25848;-74
2022/02/18 07:18:13;;;;;;;11.08;2.35;;;;;;;4.22;76.71;99041.17;1678236;85;25980;-74
2022/02/18 07:20:40;;;;;;;9.95;2.60;;;;;;;4.24;76.78;99048.36;1715474;81;25448;-74
2022/02/18 07:23:10;;;;;;;13.93;2.40;;;;;;;4.27;76.93;99058.48;1728586;83;27876;-74
2022/02/18 07:25:36;;;;;;;8.15;2.20;;;;;;;4.27;76.49;99051.78;1728714;81;25590;-76
2022/02/18 07:28:03;;;;;;;14.25;2.65;;;;;;;4.30;76.55;99057.07;1725632;82;25744;-75
2022/02/18 07:30:30;;;;;;;13.55;2.25;;;;;;;4.30;75.89;99065.89;1763774;81;25926;-75
2022/02/18 07:32:56;;;;;;;9.48;3.12;;;;;;;4.29;76.06;99061.64;1760491;81;25833;-75
2022/02/18 07:35:32;;;;;;;12.75;2.95;;;;;;;4.30;76.26;99065.10;1743517;80;28322;-74
2022/02/18 07:37:54;;;;;;;11.38;2.35;;;;;;;4.29;75.75;99064.84;1743897;81;25615;-74
2022/02/18 07:40:20;;;;;;;12.43;2.33;;;;;;;4.33;75.55;99070.42;1767726;79;25610;-75
2022/02/18 07:42:47;;;;;;;11.65;2.62;;;;;;;4.32;75.76;99078.98;1760106;81;25898;-75
2022/02/18 07:45:14;;;;;;;13.05;2.80;;;;;;;4.33;75.68;99073.10;1762428;81;25618;-74
2022/02/18 07:47:40;;;;;;;9.13;2.75;;;;;;;4.35;75.62;99074.94;1755186;81;27424;-74
2022/02/18 07:50:10;;;;;;;12.28;2.95;;;;;;;4.34;75.44;99073.33;1765885;81;25285;-74
2022/02/18 07:52:37;;;;;;;9.63;2.40;;;;;;;4.37;75.70;99074.87;1759949;81;25210;-74
2022/02/18 07:55:06;;;;;;;8.30;2.75;;;;;;;4.40;74.91;99066.80;1758744;81;25897;-74
2022/02/18 07:57:32;;;;;;;13.18;2.67;;;;;;;4.42;74.32;99082.02;1752732;81;25709;-75
2022/02/18 08:00:00;;;;;;;15.88;2.80;;;;;;;4.44;74.96;99090.02;1768304;81;25834;-74
2022/02/18 08:02:27;;;;;;;8.33;2.72;;;;;;;4.46;73.97;99089.69;1762493;81;25717;-75
2022/02/18 08:04:53;;;;;;;9.90;2.47;;;;;;;4.52;74.43;99088.52;1744038;81;25674;-75
2022/02/18 08:07:20;;;;;;;10.65;2.65;;;;;;;4.58;74.39;99087.86;1758943;81;26459;-75
2022/02/18 08:09:46;;;;;;;13.90;2.87;;;;;;;4.67;74.93;99102.16;1752565;81;25770;-74
2022/02/18 08:12:14;;;;;;;8.40;2.65;;;;;;;4.76;75.22;99108.39;1740699;81;27315;-75
2022/02/18 08:14:41;;;;;;;8.98;2.90;;;;;;;4.85;74.23;99115.98;1757827;81;25318;-74
2022/02/18 08:17:08;;;;;;;11.65;2.83;;;;;;;4.90;73.46;99127.13;1748360;81;25609;-75
2022/02/18 08:19:34;;;;;;;8.88;2.05;;;;;;;4.90;73.57;99125.78;1747818;81;25976;-73
2022/02/18 08:22:04;;;;;;;8.98;2.50;;;;;;;4.94;74.04;99121.96;1752060;81;25676;-72
2022/02/18 08:24:31;;;;;;;11.00;2.52;;;;;;;4.97;72.29;99122.18;1748639;81;28025;-72
2022/02/18 08:26:58;;;;;;;11.88;2.50;;;;;;;5.00;72.48;99112.17;1741969;81;25342;-73
2022/02/18 08:29:24;;;;;;;9.20;2.20;;;;;;;5.08;72.89;99132.69;1742410;82;25956;-73
2022/02/18 08:31:54;;;;;;;28.73;3.52;;;;;;;5.20;72.73;99122.23;1745631;82;25932;-73
2022/02/18 08:34:22;;;;;;;12.07;2.95;;;;;;;5.28;71.12;99132.77;1747920;81;32587;-73
2022/02/18 08:36:50;;;;;;;7.73;1.90;;;;;;;5.29;72.03;99131.69;1749498;81;27291;-74
2022/02/18 08:39:16;;;;;;;10.98;2.25;;;;;;;5.38;70.35;99159.36;1750688;81;25841;-74
2022/02/18 08:41:43;;;;;;;10.70;2.95;;;;;;;5.29;70.10;99132.47;1746781;81;25651;-72
2022/02/18 08:44:09;;;;;;;6.95;2.10;;;;;;;5.30;70.17;99133.29;1751411;81;25979;-73
2022/02/18 08:46:36;;;;;;;7.60;2.37;;;;;;;5.66;71.43;99148.58;1739823;82;25674;-73
2022/02/18 08:49:09;;;;;;;12.43;2.77;;;;;;;6.25;72.55;99141.78;1739544;82;27514;-75
2022/02/18 08:51:38;;;;;;;13.83;3.05;;;;;;;6.59;67.83;99124.24;1718595;82;25853;-74
2022/02/18 08:54:06;;;;;;;13.68;2.65;;;;;;;6.86;66.64;99152.79;1747007;81;25658;-74
2022/02/18 08:56:33;;;;;;;12.90;2.75;;;;;;;6.96;66.84;99147.13;1750132;81;26888;-73
2022/02/18 08:58:59;;;;;;;10.58;3.05;;;;;;;6.87;65.92;99155.73;1750029;81;25639;-73
2022/02/18 09:01:27;;;;;;;11.85;2.65;;;;;;;6.70;65.79;99164.53;1747369;81;27289;-73
2022/02/18 09:03:54;;;;;;;10.48;2.35;;;;;;;6.62;65.85;99170.09;1751664;81;25721;-74
2022/02/18 09:06:21;;;;;;;9.88;2.90;;;;;;;6.43;65.96;99178.38;1747881;81;25616;-74
2022/02/18 09:08:48;;;;;;;12.25;3.12;;;;;;;6.33;66.67;99178.11;1742215;81;25906;-73
2022/02/18 09:11:14;;;;;;;13.18;2.80;;;;;;;6.21;66.31;99175.17;1740914;82;25738;-73
2022/02/18 09:13:41;;;;;;;9.35;2.70;;;;;;;6.04;65.88;99184.47;1749159;81;27943;-73
2022/02/18 09:16:07;;;;;;;8.73;2.60;;;;;;;5.90;66.67;99174.55;1746557;82;25420;-75
2022/02/18 09:18:34;;;;;;;11.63;2.40;;;;;;;5.82;67.62;99190.03;1747820;81;25672;-75
2022/02/18 09:21:00;;;;;;;10.40;3.40;;;;;;;5.75;66.67;99195.03;1745601;80;25918;-74
2022/02/18 09:23:27;;;;;;;10.88;3.20;;;;;;;5.72;67.17;99191.08;1753556;81;25739;-75
2022/02/18 09:25:54;;;;;;;9.58;2.52;;;;;;;5.68;67.27;99198.13;1753355;81;27289;-73
2022/02/18 09:28:21;;;;;;;11.97;3.10;;;;;;;5.65;68.14;99201.97;1735257;82;25724;-74
2022/02/18 09:30:48;;;;;;;10.03;3.12;;;;;;;5.65;67.75;99214.83;1749170;81;25605;-72
2022/02/18 09:33:17;;;;;;;11.00;2.20;;;;;;;5.63;67.91;99208.20;1748071;81;25905;-75
2022/02/18 09:35:46;;;;;;;15.15;3.62;;;;;;;5.60;68.08;99213.08;1739894;81;25688;-75
2022/02/18 09:38:16;;;;;;;12.20;3.47;;;;;;;5.58;68.04;99221.16;1709879;82;26420;-75
2022/02/18 09:40:43;;;;;;;11.48;3.10;;;;;;;5.56;68.00;99220.67;1741422;81;26227;-74
2022/02/18 09:43:11;;;;;;;16.40;3.55;;;;;;;5.55;68.28;99229.81;1738733;81;25600;-74
2022/02/18 09:45:38;;;;;;;8.88;2.65;;;;;;;5.51;68.41;99242.25;1730966;81;25921;-75
2022/02/18 09:48:05;;;;;;;15.40;3.50;;;;;;;5.48;67.92;99238.26;1746952;81;25685;-75
2022/02/18 09:50:32;;;;;;;18.10;3.20;;;;;;;5.43;68.00;99233.81;1746238;82;27303;-75
2022/02/18 09:52:58;;;;;;;8.45;2.77;;;;;;;5.39;67.87;99243.54;1746568;82;25757;-78
2022/02/18 09:55:25;;;;;;;10.30;2.98;;;;;;;5.34;67.83;99247.67;1754498;81;25679;-75
2022/02/18 09:58:01;;;;;;;8.95;2.30;;;;;;;5.30;68.46;99253.39;1744336;81;25971;-76
2022/02/18 10:00:29;;;;;;;13.45;3.40;;;;;;;5.30;68.42;99252.05;1711721;83;25699;-76
2022/02/18 10:03:19;;;;;;;11.65;2.87;;;;;;;5.28;67.79;99255.59;1708584;83;27394;-76
2022/02/18 10:05:48;;;;;;;13.43;2.90;;;;;;;5.26;67.91;99256.44;1611017;87;25781;-76
2022/02/18 10:08:18;;;;;;;11.63;3.02;;;;;;;5.19;66.64;99258.70;1628718;87;25820;-75
2022/02/18 10:11:05;;;;;;;10.85;3.10;;;;;;;5.11;67.47;99256.18;1621211;87;25953;-75
2022/02/18 10:13:41;;;;;;;9.60;2.50;;;;;;;5.09;68.06;99248.17;1614784;87;25779;-75
2022/02/18 10:16:18;;;;;;;10.50;2.65;;;;;;;5.12;68.30;99260.98;1614721;87;27350;-75
2022/02/18 10:18:59;;;;;;;10.60;2.95;;;;;;;5.08;67.97;99262.13;1620887;86;25785;-75
2022/02/18 10:21:34;;;;;;;12.50;2.80;;;;;;;5.07;68.41;99265.89;1628729;87;25516;-76
2022/02/18 10:24:16;;;;;;;15.23;3.83;;;;;;;5.07;68.18;99253.83;1613678;87;25944;-76
2022/02/18 10:26:46;;;;;;;14.95;3.65;;;;;;;5.13;68.37;99283.48;1619042;87;25734;-75
2022/02/18 10:29:19;;;;;;;12.50;2.92;;;;;;;5.13;67.87;99271.41;1609256;87;27342;-76
2022/02/18 10:32:10;;;;;;;11.60;3.37;;;;;;;5.14;67.76;99286.42;1642432;86;26748;-75
2022/02/18 10:34:59;;;;;;;16.82;3.85;;;;;;;5.12;67.66;99279.75;1660318;86;25917;-75
2022/02/18 10:37:30;;;;;;;13.10;3.70;;;;;;;5.10;67.48;99287.30;1657850;86;26572;-76
2022/02/18 10:40:16;;;;;;;13.13;2.75;;;;;;;5.10;67.45;99292.11;1648679;86;26403;-75
2022/02/18 10:42:46;;;;;;;12.88;3.35;;;;;;;5.07;67.97;99287.34;1688346;82;27317;-75
2022/02/18 10:45:20;;;;;;;19.35;3.35;;;;;;;5.07;67.51;99287.89;1708789;83;25873;-74
2022/02/18 10:47:50;;;;;;;13.15;4.28;;;;;;;5.07;67.54;99298.05;1721099;82;25743;-73
2022/02/18 10:50:22;;;;;;;;;;;;;;;5.05;67.25;99306.39;1736571;82;26416;-74
2022/02/18 10:53:19;;;;;;;16.25;3.80;;;;;;;5.03;67.54;99307.23;1706433;83;25751;-74
2022/02/18 10:55:59;;;;;;;16.45;3.60;;;;;;;5.02;67.85;99308.87;1739437;82;27362;-76
2022/02/18 10:58:31;;;;;;;16.40;3.60;;;;;;;5.07;67.92;99309.33;1730507;82;25688;-75
2022/02/18 11:01:15;;;;;;;16.57;4.35;;;;;;;5.12;68.26;99314.60;1704058;84;25840;-75
2022/02/18 11:03:48;;;;;;;14.80;4.62;;;;;;;5.21;68.20;99327.55;1681311;83;25921;-75
2022/02/18 11:06:24;;;;;;;15.05;3.87;;;;;;;5.29;68.55;99312.12;1660294;85;25793;-75
2022/02/18 11:08:57;;;;;;;14.47;3.85;;;;;;;5.40;68.04;99314.08;1662357;86;27605;-74
2022/02/18 11:11:37;;;;;;;19.15;4.05;;;;;;;5.44;67.77;99315.06;1654831;86;25724;-74
2022/02/18 11:14:10;;;;;;;;;;;;;;;5.49;67.35;99311.50;1648741;84;26380;-75
2022/02/18 11:16:44;;;;;;;13.45;3.92;;;;;;;5.52;67.57;99306.87;1660510;85;26959;-75
2022/02/18 11:19:12;;;;;;;19.52;6.00;;;;;;;5.62;67.93;99299.97;1660342;86;26484;-73
2022/02/18 11:21:39;;;;;;;15.32;3.33;;;;;;;5.75;66.90;99303.16;1655115;86;27328;-75
2022/02/18 11:24:07;;;;;;;14.35;3.35;;;;;;;5.76;65.34;99302.07;1661910;86;26443;-75
2022/02/18 11:26:34;;;;;;;11.57;3.58;;;;;;;5.77;65.39;99309.56;1657586;85;25767;-75
2022/02/18 11:29:02;;;;;;;15.53;3.90;;;;;;;5.86;66.85;99305.65;1657915;86;25926;-75
2022/02/18 11:31:42;;;;;;;15.08;4.25;;;;;;;5.96;65.96;99305.45;1661641;86;25821;-73
2022/02/18 11:34:39;;;;;;;14.55;3.65;;;;;;;6.02;64.29;99319.00;1640469;86;27382;-75
2022/02/18 11:37:46;;;;;;;16.55;3.98;;;;;;;6.05;65.64;99310.90;1672519;85;25718;-74
2022/02/18 11:40:30;;;;;;;16.25;5.15;;;;;;;6.07;65.18;99305.45;1661137;86;25788;-77
2022/02/18 11:43:22;;;;;;;17.37;3.77;;;;;;;6.06;63.91;99307.10;1647314;84;26598;-74
2022/02/18 11:46:06;;;;;;;15.53;4.33;;;;;;;5.96;64.82;99308.14;1650891;84;25782;-75
2022/02/18 11:48:49;;;;;;;33.18;10.48;;;;;;;5.91;64.63;99297.48;1644796;85;27991;-74